sensor_id;sensor_type;location;lat;lon;timestamp;temperature;humidity
12303;DHT22;6214;48.012;7.862;2024-02-15T00:00:52;9.80;99.90
12303;DHT22;6214;48.012;7.862;2024-02-15T00:05:48;9.70;99.90
12303;DHT22;6214;48.012;7.862;2024-02-15T00:08:15;9.70;99.90
12303;DHT22;6214;48.012;7.862;2024-02-15T00:13:10;9.50;99.90
12303;DHT22;6214;48.012;7.862;2024-02-15T00:15:37;9.50;99.90
12303;DHT22;6214;48.012;7.862;2024-02-15T00:18:04;9.30;99.90
12303;DHT22;6214;48.012;7.862;2024-02-15T00:20:31;9.30;99.90
12303;DHT22;6214;48.012;7.862;2024-02-15T00:23:00;9.20;99.90
12303;DHT22;6214;48.012;7.862;2024-02-15T00:25:27;9.00;99.90
12303;DHT22;6214;48.012;7.862;2024-02-15T00:27:54;9.00;99.90
12303;DHT22;6214;48.012;7.862;2024-02-15T00:30:20;9.00;99.90
12303;DHT22;6214;48.012;7.862;2024-02-15T00:32:48;9.00;99.90
12303;DHT22;6214;48.012;7.862;2024-02-15T00:35:15;8.90;99.90
12303;DHT22;6214;48.012;7.862;2024-02-15T00:37:42;8.90;99.90
12303;DHT22;6214;48.012;7.862;2024-02-15T00:40:09;8.90;99.90
12303;DHT22;6214;48.012;7.862;2024-02-15T00:42:36;8.80;99.90
12303;DHT22;6214;48.012;7.862;2024-02-15T00:45:04;8.80;99.90
12303;DHT22;6214;48.012;7.862;2024-02-15T00:47:31;8.70;99.90
12303;DHT22;6214;48.012;7.862;2024-02-15T00:49:59;8.70;99.90
12303;DHT22;6214;48.012;7.862;2024-02-15T00:52:26;8.70;99.90
12303;DHT22;6214;48.012;7.862;2024-02-15T00:54:55;8.70;99.90
12303;DHT22;6214;48.012;7.862;2024-02-15T00:57:22;8.60;99.90
12303;DHT22;6214;48.012;7.862;2024-02-15T00:59:49;8.50;99.90
12303;DHT22;6214;48.012;7.862;2024-02-15T01:02:16;8.40;99.90
12303;DHT22;6214;48.012;7.862;2024-02-15T01:04:44;8.40;99.90
12303;DHT22;6214;48.012;7.862;2024-02-15T01:07:12;8.40;99.90
12303;DHT22;6214;48.012;7.862;2024-02-15T01:09:40;8.40;99.90
12303;DHT22;6214;48.012;7.862;2024-02-15T01:12:06;8.40;99.90
12303;DHT22;6214;48.012;7.862;2024-02-15T01:14:33;8.30;99.90
12303;DHT22;6214;48.012;7.862;2024-02-15T01:17:01;8.20;99.90
12303;DHT22;6214;48.012;7.862;2024-02-15T01:19:28;8.20;99.90
12303;DHT22;6214;48.012;7.862;2024-02-15T01:21:55;8.20;99.90
12303;DHT22;6214;48.012;7.862;2024-02-15T01:24:22;8.20;99.90
12303;DHT22;6214;48.012;7.862;2024-02-15T01:26:48;8.10;99.90
12303;DHT22;6214;48.012;7.862;2024-02-15T01:29:16;8.10;99.90
12303;DHT22;6214;48.012;7.862;2024-02-15T01:31:42;8.10;99.90
12303;DHT22;6214;48.012;7.862;2024-02-15T01:34:09;8.10;99.90
12303;DHT22;6214;48.012;7.862;2024-02-15T01:36:37;8.00;99.90
12303;DHT22;6214;48.012;7.862;2024-02-15T01:39:03;8.00;99.90
12303;DHT22;6214;48.012;7.862;2024-02-15T01:41:30;8.00;99.90
12303;DHT22;6214;48.012;7.862;2024-02-15T01:43:58;8.00;99.90
12303;DHT22;6214;48.012;7.862;2024-02-15T01:46:24;8.00;99.90
12303;DHT22;6214;48.012;7.862;2024-02-15T01:48:51;8.00;99.90
12303;DHT22;6214;48.012;7.862;2024-02-15T01:51:18;8.00;99.90
12303;DHT22;6214;48.012;7.862;2024-02-15T01:53:45;8.00;99.90
12303;DHT22;6214;48.012;7.862;2024-02-15T01:56:14;8.00;99.90
12303;DHT22;6214;48.012;7.862;2024-02-15T01:58:42;8.00;99.90
12303;DHT22;6214;48.012;7.862;2024-02-15T02:01:12;7.90;99.90
12303;DHT22;6214;48.012;7.862;2024-02-15T02:03:39;8.00;99.90
12303;DHT22;6214;48.012;7.862;2024-02-15T02:06:07;8.00;99.90
12303;DHT22;6214;48.012;7.862;2024-02-15T02:08:34;8.00;99.90
12303;DHT22;6214;48.012;7.862;2024-02-15T02:11:01;8.00;99.90
12303;DHT22;6214;48.012;7.862;2024-02-15T02:13:28;8.00;99.90
12303;DHT22;6214;48.012;7.862;2024-02-15T02:15:57;8.00;99.90
12303;DHT22;6214;48.012;7.862;2024-02-15T02:18:24;7.90;99.90
12303;DHT22;6214;48.012;7.862;2024-02-15T02:20:51;7.90;99.90
12303;DHT22;6214;48.012;7.862;2024-02-15T02:23:21;7.80;99.90
12303;DHT22;6214;48.012;7.862;2024-02-15T02:25:54;7.80;99.90
12303;DHT22;6214;48.012;7.862;2024-02-15T02:28:22;7.80;99.90
12303;DHT22;6214;48.012;7.862;2024-02-15T02:30:49;7.80;99.90
12303;DHT22;6214;48.012;7.862;2024-02-15T02:33:16;7.70;99.90
12303;DHT22;6214;48.012;7.862;2024-02-15T02:35:48;7.70;99.90
12303;DHT22;6214;48.012;7.862;2024-02-15T02:38:15;7.70;99.90
12303;DHT22;6214;48.012;7.862;2024-02-15T02:40:42;7.70;99.90
12303;DHT22;6214;48.012;7.862;2024-02-15T02:43:09;7.70;99.90
12303;DHT22;6214;48.012;7.862;2024-02-15T02:45:36;7.60;99.90
12303;DHT22;6214;48.012;7.862;2024-02-15T02:48:03;7.60;99.90
12303;DHT22;6214;48.012;7.862;2024-02-15T02:50:31;7.50;99.90
12303;DHT22;6214;48.012;7.862;2024-02-15T02:52:58;7.50;99.90
12303;DHT22;6214;48.012;7.862;2024-02-15T02:55:25;7.50;99.90
12303;DHT22;6214;48.012;7.862;2024-02-15T02:57:53;7.50;99.90
12303;DHT22;6214;48.012;7.862;2024-02-15T03:00:21;7.50;99.90
12303;DHT22;6214;48.012;7.862;2024-02-15T03:02:49;7.40;99.90
12303;DHT22;6214;48.012;7.862;2024-02-15T03:05:15;7.50;99.90
12303;DHT22;6214;48.012;7.862;2024-02-15T03:07:42;7.30;99.90
12303;DHT22;6214;48.012;7.862;2024-02-15T03:10:10;7.40;99.90
12303;DHT22;6214;48.012;7.862;2024-02-15T03:12:40;7.30;99.90
12303;DHT22;6214;48.012;7.862;2024-02-15T03:15:07;7.30;99.90
12303;DHT22;6214;48.012;7.862;2024-02-15T03:17:40;7.30;99.90
12303;DHT22;6214;48.012;7.862;2024-02-15T03:20:08;7.20;99.90
12303;DHT22;6214;48.012;7.862;2024-02-15T03:22:39;7.80;99.90
12303;DHT22;6214;48.012;7.862;2024-02-15T03:25:08;7.20;99.90
12303;DHT22;6214;48.012;7.862;2024-02-15T03:27:36;7.30;99.90
12303;DHT22;6214;48.012;7.862;2024-02-15T03:30:04;7.30;99.90
12303;DHT22;6214;48.012;7.862;2024-02-15T03:32:31;7.30;99.90
12303;DHT22;6214;48.012;7.862;2024-02-15T03:34:58;7.30;99.90
12303;DHT22;6214;48.012;7.862;2024-02-15T03:37:27;7.20;99.90
12303;DHT22;6214;48.012;7.862;2024-02-15T03:39:54;7.30;99.90
12303;DHT22;6214;48.012;7.862;2024-02-15T03:42:21;7.30;99.90
12303;DHT22;6214;48.012;7.862;2024-02-15T03:44:48;7.30;99.90
12303;DHT22;6214;48.012;7.862;2024-02-15T03:47:14;7.20;99.90
12303;DHT22;6214;48.012;7.862;2024-02-15T03:49:42;7.10;99.90
12303;DHT22;6214;48.012;7.862;2024-02-15T03:52:09;7.00;99.90
12303;DHT22;6214;48.012;7.862;2024-02-15T03:54:38;7.00;99.90
12303;DHT22;6214;48.012;7.862;2024-02-15T03:57:05;7.00;99.90
12303;DHT22;6214;48.012;7.862;2024-02-15T03:59:33;7.00;99.90
12303;DHT22;6214;48.012;7.862;2024-02-15T04:02:01;7.00;99.90
12303;DHT22;6214;48.012;7.862;2024-02-15T04:04:30;7.00;99.90
12303;DHT22;6214;48.012;7.862;2024-02-15T04:06:57;7.00;99.90
12303;DHT22;6214;48.012;7.862;2024-02-15T04:09:24;7.00;99.90
12303;DHT22;6214;48.012;7.862;2024-02-15T04:11:52;6.90;99.90
12303;DHT22;6214;48.012;7.862;2024-02-15T04:14:20;6.90;99.90
12303;DHT22;6214;48.012;7.862;2024-02-15T04:16:47;6.90;99.90
12303;DHT22;6214;48.012;7.862;2024-02-15T04:19:14;6.90;99.90
12303;DHT22;6214;48.012;7.862;2024-02-15T04:21:41;6.80;99.90
12303;DHT22;6214;48.012;7.862;2024-02-15T04:24:10;6.90;99.90
12303;DHT22;6214;48.012;7.862;2024-02-15T04:29:04;6.90;99.90
12303;DHT22;6214;48.012;7.862;2024-02-15T04:31:35;6.90;99.90
12303;DHT22;6214;48.012;7.862;2024-02-15T04:34:05;6.80;99.90
12303;DHT22;6214;48.012;7.862;2024-02-15T04:41:29;6.90;99.90
12303;DHT22;6214;48.012;7.862;2024-02-15T04:43:56;6.80;99.90
12303;DHT22;6214;48.012;7.862;2024-02-15T04:46:23;6.70;99.90
12303;DHT22;6214;48.012;7.862;2024-02-15T04:48:51;6.70;99.90
12303;DHT22;6214;48.012;7.862;2024-02-15T04:53:46;6.70;99.90
12303;DHT22;6214;48.012;7.862;2024-02-15T04:56:14;6.60;99.90
12303;DHT22;6214;48.012;7.862;2024-02-15T04:58:42;6.60;99.90
12303;DHT22;6214;48.012;7.862;2024-02-15T05:08:36;6.60;99.90
12303;DHT22;6214;48.012;7.862;2024-02-15T05:11:09;6.70;99.90
12303;DHT22;6214;48.012;7.862;2024-02-15T05:13:41;6.70;99.90
12303;DHT22;6214;48.012;7.862;2024-02-15T05:16:08;6.80;99.90
12303;DHT22;6214;48.012;7.862;2024-02-15T05:18:35;6.90;99.90
12303;DHT22;6214;48.012;7.862;2024-02-15T05:21:02;6.90;99.90
12303;DHT22;6214;48.012;7.862;2024-02-15T05:23:30;7.00;99.90
12303;DHT22;6214;48.012;7.862;2024-02-15T05:25:57;7.00;99.90
12303;DHT22;6214;48.012;7.862;2024-02-15T05:28:24;7.10;99.90
12303;DHT22;6214;48.012;7.862;2024-02-15T05:31:16;7.10;99.90
12303;DHT22;6214;48.012;7.862;2024-02-15T05:33:44;7.10;99.90
12303;DHT22;6214;48.012;7.862;2024-02-15T05:36:11;7.10;99.90
12303;DHT22;6214;48.012;7.862;2024-02-15T05:38:39;7.20;99.90
12303;DHT22;6214;48.012;7.862;2024-02-15T05:41:07;7.20;99.90
12303;DHT22;6214;48.012;7.862;2024-02-15T05:43:34;7.20;99.90
12303;DHT22;6214;48.012;7.862;2024-02-15T05:46:04;7.30;99.90
12303;DHT22;6214;48.012;7.862;2024-02-15T05:48:33;7.30;99.90
12303;DHT22;6214;48.012;7.862;2024-02-15T05:51:04;7.20;99.90
12303;DHT22;6214;48.012;7.862;2024-02-15T05:53:31;7.10;99.90
12303;DHT22;6214;48.012;7.862;2024-02-15T05:56:08;7.10;99.90
12303;DHT22;6214;48.012;7.862;2024-02-15T05:58:35;7.20;99.90
12303;DHT22;6214;48.012;7.862;2024-02-15T06:01:03;7.20;99.90
12303;DHT22;6214;48.012;7.862;2024-02-15T06:03:33;7.10;99.90
12303;DHT22;6214;48.012;7.862;2024-02-15T06:06:01;7.00;99.90
12303;DHT22;6214;48.012;7.862;2024-02-15T06:08:29;7.10;99.90
12303;DHT22;6214;48.012;7.862;2024-02-15T06:10:59;7.10;99.90
12303;DHT22;6214;48.012;7.862;2024-02-15T06:13:26;7.20;99.90
12303;DHT22;6214;48.012;7.862;2024-02-15T06:15:53;7.00;99.90
12303;DHT22;6214;48.012;7.862;2024-02-15T06:18:21;7.00;99.90
12303;DHT22;6214;48.012;7.862;2024-02-15T06:20:51;7.10;99.90
12303;DHT22;6214;48.012;7.862;2024-02-15T06:23:22;7.10;99.90
12303;DHT22;6214;48.012;7.862;2024-02-15T06:25:51;7.10;99.90
12303;DHT22;6214;48.012;7.862;2024-02-15T06:28:22;7.10;99.90
12303;DHT22;6214;48.012;7.862;2024-02-15T06:31:09;7.20;99.90
12303;DHT22;6214;48.012;7.862;2024-02-15T06:33:55;7.30;99.90
12303;DHT22;6214;48.012;7.862;2024-02-15T06:36:50;7.30;99.90
12303;DHT22;6214;48.012;7.862;2024-02-15T06:39:35;7.30;99.90
12303;DHT22;6214;48.012;7.862;2024-02-15T06:42:09;7.50;99.90
12303;DHT22;6214;48.012;7.862;2024-02-15T06:44:47;7.60;99.90
12303;DHT22;6214;48.012;7.862;2024-02-15T06:47:14;7.70;99.90
12303;DHT22;6214;48.012;7.862;2024-02-15T06:49:45;7.80;99.90
12303;DHT22;6214;48.012;7.862;2024-02-15T06:52:12;7.90;99.90
12303;DHT22;6214;48.012;7.862;2024-02-15T06:54:41;8.00;99.90
12303;DHT22;6214;48.012;7.862;2024-02-15T06:57:08;8.00;99.90
12303;DHT22;6214;48.012;7.862;2024-02-15T06:59:35;8.10;99.90
12303;DHT22;6214;48.012;7.862;2024-02-15T07:02:03;8.20;99.90
12303;DHT22;6214;48.012;7.862;2024-02-15T07:04:34;8.40;99.90
12303;DHT22;6214;48.012;7.862;2024-02-15T07:07:01;8.50;99.90
12303;DHT22;6214;48.012;7.862;2024-02-15T07:09:29;8.70;99.90
12303;DHT22;6214;48.012;7.862;2024-02-15T07:11:57;8.80;99.90
12303;DHT22;6214;48.012;7.862;2024-02-15T07:14:25;9.00;99.90
12303;DHT22;6214;48.012;7.862;2024-02-15T07:16:54;9.00;99.90
12303;DHT22;6214;48.012;7.862;2024-02-15T07:19:24;9.20;99.90
12303;DHT22;6214;48.012;7.862;2024-02-15T07:21:53;9.40;99.90
12303;DHT22;6214;48.012;7.862;2024-02-15T07:24:21;9.70;99.90
12303;DHT22;6214;48.012;7.862;2024-02-15T07:26:48;9.80;99.90
12303;DHT22;6214;48.012;7.862;2024-02-15T07:29:19;9.90;99.90
12303;DHT22;6214;48.012;7.862;2024-02-15T07:31:46;9.90;99.90
12303;DHT22;6214;48.012;7.862;2024-02-15T07:34:13;10.10;99.90
12303;DHT22;6214;48.012;7.862;2024-02-15T07:36:42;10.10;99.90
12303;DHT22;6214;48.012;7.862;2024-02-15T07:39:09;10.10;99.90
12303;DHT22;6214;48.012;7.862;2024-02-15T07:41:40;10.10;99.90
12303;DHT22;6214;48.012;7.862;2024-02-15T07:44:07;10.10;99.90
12303;DHT22;6214;48.012;7.862;2024-02-15T07:46:34;10.10;99.90
12303;DHT22;6214;48.012;7.862;2024-02-15T07:49:01;10.10;99.90
12303;DHT22;6214;48.012;7.862;2024-02-15T07:51:28;10.20;99.90
12303;DHT22;6214;48.012;7.862;2024-02-15T07:53:55;10.30;99.90
12303;DHT22;6214;48.012;7.862;2024-02-15T07:56:22;10.40;99.90
12303;DHT22;6214;48.012;7.862;2024-02-15T07:58:49;10.40;99.90
12303;DHT22;6214;48.012;7.862;2024-02-15T08:01:20;10.50;99.90
12303;DHT22;6214;48.012;7.862;2024-02-15T08:03:48;10.30;99.90
12303;DHT22;6214;48.012;7.862;2024-02-15T08:06:16;10.20;99.90
12303;DHT22;6214;48.012;7.862;2024-02-15T08:08:45;10.10;99.90
12303;DHT22;6214;48.012;7.862;2024-02-15T08:11:15;10.10;99.90
12303;DHT22;6214;48.012;7.862;2024-02-15T08:13:50;10.20;99.90
12303;DHT22;6214;48.012;7.862;2024-02-15T08:16:20;10.30;99.90
12303;DHT22;6214;48.012;7.862;2024-02-15T08:18:50;10.40;99.90
12303;DHT22;6214;48.012;7.862;2024-02-15T08:21:28;10.60;99.90
12303;DHT22;6214;48.012;7.862;2024-02-15T08:23:56;10.80;99.90
12303;DHT22;6214;48.012;7.862;2024-02-15T08:26:23;11.10;99.90
12303;DHT22;6214;48.012;7.862;2024-02-15T08:28:50;11.30;99.90
12303;DHT22;6214;48.012;7.862;2024-02-15T08:31:17;11.50;99.90
12303;DHT22;6214;48.012;7.862;2024-02-15T08:33:45;11.60;99.90
12303;DHT22;6214;48.012;7.862;2024-02-15T08:36:13;11.80;99.90
12303;DHT22;6214;48.012;7.862;2024-02-15T08:38:43;12.00;99.90
12303;DHT22;6214;48.012;7.862;2024-02-15T08:41:12;12.20;99.90
12303;DHT22;6214;48.012;7.862;2024-02-15T08:43:39;12.50;99.90
12303;DHT22;6214;48.012;7.862;2024-02-15T08:46:07;12.50;99.90
12303;DHT22;6214;48.012;7.862;2024-02-15T08:48:34;12.90;99.90
12303;DHT22;6214;48.012;7.862;2024-02-15T08:51:02;13.20;99.90
12303;DHT22;6214;48.012;7.862;2024-02-15T08:53:30;13.50;99.90
12303;DHT22;6214;48.012;7.862;2024-02-15T08:55:58;13.60;99.90
12303;DHT22;6214;48.012;7.862;2024-02-15T08:58:25;13.80;99.90
12303;DHT22;6214;48.012;7.862;2024-02-15T09:00:53;13.70;99.90
12303;DHT22;6214;48.012;7.862;2024-02-15T09:03:20;13.50;99.90
12303;DHT22;6214;48.012;7.862;2024-02-15T09:05:47;13.30;99.90
12303;DHT22;6214;48.012;7.862;2024-02-15T09:08:15;13.40;99.90
12303;DHT22;6214;48.012;7.862;2024-02-15T09:10:42;13.60;99.90
12303;DHT22;6214;48.012;7.862;2024-02-15T09:13:09;13.80;99.90
12303;DHT22;6214;48.012;7.862;2024-02-15T09:15:36;13.80;99.90
12303;DHT22;6214;48.012;7.862;2024-02-15T09:18:03;13.70;99.90
12303;DHT22;6214;48.012;7.862;2024-02-15T09:20:30;13.90;99.90
12303;DHT22;6214;48.012;7.862;2024-02-15T09:22:58;14.10;99.90
12303;DHT22;6214;48.012;7.862;2024-02-15T09:25:25;14.20;99.90
12303;DHT22;6214;48.012;7.862;2024-02-15T09:27:53;14.10;99.90
12303;DHT22;6214;48.012;7.862;2024-02-15T09:30:22;14.20;99.90
12303;DHT22;6214;48.012;7.862;2024-02-15T09:32:51;14.40;99.90
12303;DHT22;6214;48.012;7.862;2024-02-15T09:35:18;14.70;99.90
12303;DHT22;6214;48.012;7.862;2024-02-15T09:37:47;14.80;99.90
12303;DHT22;6214;48.012;7.862;2024-02-15T09:40:17;14.70;99.90
12303;DHT22;6214;48.012;7.862;2024-02-15T09:42:45;14.50;99.90
12303;DHT22;6214;48.012;7.862;2024-02-15T09:45:13;14.40;99.90
12303;DHT22;6214;48.012;7.862;2024-02-15T09:47:44;14.30;99.90
12303;DHT22;6214;48.012;7.862;2024-02-15T09:50:16;14.50;99.90
12303;DHT22;6214;48.012;7.862;2024-02-15T09:52:51;14.40;99.90
12303;DHT22;6214;48.012;7.862;2024-02-15T09:55:18;14.30;99.90
12303;DHT22;6214;48.012;7.862;2024-02-15T09:57:46;14.30;99.90
12303;DHT22;6214;48.012;7.862;2024-02-15T10:00:14;14.30;99.90
12303;DHT22;6214;48.012;7.862;2024-02-15T10:02:51;14.30;99.90
12303;DHT22;6214;48.012;7.862;2024-02-15T10:05:24;14.30;99.90
12303;DHT22;6214;48.012;7.862;2024-02-15T10:07:51;14.30;99.90
12303;DHT22;6214;48.012;7.862;2024-02-15T10:10:20;14.40;99.90
12303;DHT22;6214;48.012;7.862;2024-02-15T10:12:48;14.60;99.90
12303;DHT22;6214;48.012;7.862;2024-02-15T10:15:36;14.90;99.90
12303;DHT22;6214;48.012;7.862;2024-02-15T10:18:08;15.00;99.90
12303;DHT22;6214;48.012;7.862;2024-02-15T10:20:41;15.40;99.90
12303;DHT22;6214;48.012;7.862;2024-02-15T10:23:12;15.30;99.90
12303;DHT22;6214;48.012;7.862;2024-02-15T10:25:40;15.50;99.90
12303;DHT22;6214;48.012;7.862;2024-02-15T10:28:08;15.30;99.90
12303;DHT22;6214;48.012;7.862;2024-02-15T10:30:38;15.30;99.90
12303;DHT22;6214;48.012;7.862;2024-02-15T10:33:06;15.30;99.90
12303;DHT22;6214;48.012;7.862;2024-02-15T10:35:34;15.40;99.90
12303;DHT22;6214;48.012;7.862;2024-02-15T10:38:09;15.30;99.90
12303;DHT22;6214;48.012;7.862;2024-02-15T10:40:37;15.30;99.90
12303;DHT22;6214;48.012;7.862;2024-02-15T10:43:05;15.50;99.90
12303;DHT22;6214;48.012;7.862;2024-02-15T10:45:34;15.60;99.90
12303;DHT22;6214;48.012;7.862;2024-02-15T10:48:09;15.60;99.90
12303;DHT22;6214;48.012;7.862;2024-02-15T10:50:39;15.70;99.90
12303;DHT22;6214;48.012;7.862;2024-02-15T10:53:36;15.90;99.90
12303;DHT22;6214;48.012;7.862;2024-02-15T10:58:49;15.70;99.90
12303;DHT22;6214;48.012;7.862;2024-02-15T11:01:20;15.50;99.90
12303;DHT22;6214;48.012;7.862;2024-02-15T11:03:57;15.40;99.90
12303;DHT22;6214;48.012;7.862;2024-02-15T11:06:29;15.30;99.90
12303;DHT22;6214;48.012;7.862;2024-02-15T11:08:57;15.10;99.90
12303;DHT22;6214;48.012;7.862;2024-02-15T11:11:26;16.00;99.90
12303;DHT22;6214;48.012;7.862;2024-02-15T11:14:32;15.30;99.90
12303;DHT22;6214;48.012;7.862;2024-02-15T11:17:02;15.50;99.90
12303;DHT22;6214;48.012;7.862;2024-02-15T11:22:13;15.50;99.90
12303;DHT22;6214;48.012;7.862;2024-02-15T11:24:49;15.40;99.90
12303;DHT22;6214;48.012;7.862;2024-02-15T11:27:27;15.30;99.90
12303;DHT22;6214;48.012;7.862;2024-02-15T11:30:01;15.60;99.90
12303;DHT22;6214;48.012;7.862;2024-02-15T11:32:46;15.40;99.90
12303;DHT22;6214;48.012;7.862;2024-02-15T11:37:50;15.50;99.90
12303;DHT22;6214;48.012;7.862;2024-02-15T11:40:19;15.60;99.90
12303;DHT22;6214;48.012;7.862;2024-02-15T11:42:46;15.70;99.90
12303;DHT22;6214;48.012;7.862;2024-02-15T11:45:15;15.90;99.90
12303;DHT22;6214;48.012;7.862;2024-02-15T11:47:48;16.00;99.90
12303;DHT22;6214;48.012;7.862;2024-02-15T11:50:18;16.10;99.90
12303;DHT22;6214;48.012;7.862;2024-02-15T11:52:51;16.30;99.90
12303;DHT22;6214;48.012;7.862;2024-02-15T11:55:20;16.40;99.90
12303;DHT22;6214;48.012;7.862;2024-02-15T11:58:01;16.30;99.90
12303;DHT22;6214;48.012;7.862;2024-02-15T12:00:38;16.20;99.90
12303;DHT22;6214;48.012;7.862;2024-02-15T12:03:25;16.30;99.90
12303;DHT22;6214;48.012;7.862;2024-02-15T12:06:29;16.30;99.90
12303;DHT22;6214;48.012;7.862;2024-02-15T12:09:18;16.30;99.90
12303;DHT22;6214;48.012;7.862;2024-02-15T12:12:05;16.40;99.90
12303;DHT22;6214;48.012;7.862;2024-02-15T12:15:01;16.60;99.90
12303;DHT22;6214;48.012;7.862;2024-02-15T12:17:48;16.40;99.90
12303;DHT22;6214;48.012;7.862;2024-02-15T12:20:33;16.60;99.90
12303;DHT22;6214;48.012;7.862;2024-02-15T12:23:01;16.80;99.90
12303;DHT22;6214;48.012;7.862;2024-02-15T12:25:28;16.70;99.90
12303;DHT22;6214;48.012;7.862;2024-02-15T12:27:56;16.90;99.90
12303;DHT22;6214;48.012;7.862;2024-02-15T12:30:23;16.90;99.90
12303;DHT22;6214;48.012;7.862;2024-02-15T12:32:52;16.90;99.90
12303;DHT22;6214;48.012;7.862;2024-02-15T12:35:35;17.00;99.90
12303;DHT22;6214;48.012;7.862;2024-02-15T12:38:03;17.10;99.90
12303;DHT22;6214;48.012;7.862;2024-02-15T12:40:36;17.00;99.90
12303;DHT22;6214;48.012;7.862;2024-02-15T12:43:05;16.90;99.90
12303;DHT22;6214;48.012;7.862;2024-02-15T12:45:36;17.00;99.90
12303;DHT22;6214;48.012;7.862;2024-02-15T12:48:04;17.10;99.90
12303;DHT22;6214;48.012;7.862;2024-02-15T12:50:33;17.30;99.90
12303;DHT22;6214;48.012;7.862;2024-02-15T12:53:01;17.40;99.90
12303;DHT22;6214;48.012;7.862;2024-02-15T12:55:36;17.30;99.90
12303;DHT22;6214;48.012;7.862;2024-02-15T12:58:12;17.30;99.90
12303;DHT22;6214;48.012;7.862;2024-02-15T13:00:40;17.20;99.90
12303;DHT22;6214;48.012;7.862;2024-02-15T13:03:08;17.30;99.90
12303;DHT22;6214;48.012;7.862;2024-02-15T13:05:38;17.40;99.90
12303;DHT22;6214;48.012;7.862;2024-02-15T13:08:06;17.40;99.90
12303;DHT22;6214;48.012;7.862;2024-02-15T13:10:37;17.40;99.90
12303;DHT22;6214;48.012;7.862;2024-02-15T13:13:06;17.50;99.90
12303;DHT22;6214;48.012;7.862;2024-02-15T13:15:33;17.60;99.90
12303;DHT22;6214;48.012;7.862;2024-02-15T13:18:01;17.30;99.90
12303;DHT22;6214;48.012;7.862;2024-02-15T13:20:32;17.40;99.90
12303;DHT22;6214;48.012;7.862;2024-02-15T13:23:07;18.20;99.90
12303;DHT22;6214;48.012;7.862;2024-02-15T13:25:50;17.50;99.90
12303;DHT22;6214;48.012;7.862;2024-02-15T13:28:18;17.40;99.90
12303;DHT22;6214;48.012;7.862;2024-02-15T13:30:45;17.30;99.90
12303;DHT22;6214;48.012;7.862;2024-02-15T13:33:13;17.10;99.90
12303;DHT22;6214;48.012;7.862;2024-02-15T13:35:40;17.10;99.90
12303;DHT22;6214;48.012;7.862;2024-02-15T13:38:08;17.30;99.90
12303;DHT22;6214;48.012;7.862;2024-02-15T13:40:40;17.30;99.90
12303;DHT22;6214;48.012;7.862;2024-02-15T13:43:08;17.20;99.90
12303;DHT22;6214;48.012;7.862;2024-02-15T13:45:40;17.20;99.90
12303;DHT22;6214;48.012;7.862;2024-02-15T13:48:07;17.20;99.90
12303;DHT22;6214;48.012;7.862;2024-02-15T13:50:36;17.10;99.90
12303;DHT22;6214;48.012;7.862;2024-02-15T13:53:04;17.10;99.90
12303;DHT22;6214;48.012;7.862;2024-02-15T13:55:31;17.10;99.90
12303;DHT22;6214;48.012;7.862;2024-02-15T13:57:58;17.00;99.90
12303;DHT22;6214;48.012;7.862;2024-02-15T14:00:26;17.00;99.90
12303;DHT22;6214;48.012;7.862;2024-02-15T14:02:58;17.00;99.90
12303;DHT22;6214;48.012;7.862;2024-02-15T14:05:27;17.10;99.90
12303;DHT22;6214;48.012;7.862;2024-02-15T14:08:04;17.00;99.90
12303;DHT22;6214;48.012;7.862;2024-02-15T14:10:38;16.90;99.90
12303;DHT22;6214;48.012;7.862;2024-02-15T14:13:05;17.10;99.90
12303;DHT22;6214;48.012;7.862;2024-02-15T14:15:33;16.90;99.90
12303;DHT22;6214;48.012;7.862;2024-02-15T14:18:09;16.80;99.90
12303;DHT22;6214;48.012;7.862;2024-02-15T14:20:46;16.80;99.90
12303;DHT22;6214;48.012;7.862;2024-02-15T14:23:14;16.80;99.90
12303;DHT22;6214;48.012;7.862;2024-02-15T14:25:43;16.60;99.90
12303;DHT22;6214;48.012;7.862;2024-02-15T14:28:11;16.70;99.90
12303;DHT22;6214;48.012;7.862;2024-02-15T14:30:39;16.70;99.90
12303;DHT22;6214;48.012;7.862;2024-02-15T14:33:25;16.70;99.90
12303;DHT22;6214;48.012;7.862;2024-02-15T14:36:00;16.50;99.90
12303;DHT22;6214;48.012;7.862;2024-02-15T14:38:27;16.40;99.90
12303;DHT22;6214;48.012;7.862;2024-02-15T14:40:55;16.50;99.90
12303;DHT22;6214;48.012;7.862;2024-02-15T14:43:24;16.30;99.90
12303;DHT22;6214;48.012;7.862;2024-02-15T14:45:52;16.20;99.90
12303;DHT22;6214;48.012;7.862;2024-02-15T14:48:24;16.20;99.90
12303;DHT22;6214;48.012;7.862;2024-02-15T14:50:52;16.20;99.90
12303;DHT22;6214;48.012;7.862;2024-02-15T14:53:20;16.20;99.90
12303;DHT22;6214;48.012;7.862;2024-02-15T14:55:47;16.20;99.90
12303;DHT22;6214;48.012;7.862;2024-02-15T14:58:14;16.20;99.90
12303;DHT22;6214;48.012;7.862;2024-02-15T15:00:44;16.20;99.90
12303;DHT22;6214;48.012;7.862;2024-02-15T15:03:13;16.20;99.90
12303;DHT22;6214;48.012;7.862;2024-02-15T15:05:41;16.20;99.90
12303;DHT22;6214;48.012;7.862;2024-02-15T15:08:27;16.20;99.90
12303;DHT22;6214;48.012;7.862;2024-02-15T15:11:12;16.30;99.90
12303;DHT22;6214;48.012;7.862;2024-02-15T15:13:58;16.20;99.90
12303;DHT22;6214;48.012;7.862;2024-02-15T15:16:25;16.20;99.90
12303;DHT22;6214;48.012;7.862;2024-02-15T15:18:53;16.20;99.90
12303;DHT22;6214;48.012;7.862;2024-02-15T15:21:20;16.20;99.90
12303;DHT22;6214;48.012;7.862;2024-02-15T15:23:49;16.20;99.90
12303;DHT22;6214;48.012;7.862;2024-02-15T15:26:20;16.30;99.90
12303;DHT22;6214;48.012;7.862;2024-02-15T15:28:48;16.30;99.90
12303;DHT22;6214;48.012;7.862;2024-02-15T15:31:15;16.20;99.90
12303;DHT22;6214;48.012;7.862;2024-02-15T15:33:42;16.00;99.90
12303;DHT22;6214;48.012;7.862;2024-02-15T15:36:09;15.90;99.90
12303;DHT22;6214;48.012;7.862;2024-02-15T15:38:37;15.90;99.90
12303;DHT22;6214;48.012;7.862;2024-02-15T15:41:07;15.90;99.90
12303;DHT22;6214;48.012;7.862;2024-02-15T15:43:35;15.90;99.90
12303;DHT22;6214;48.012;7.862;2024-02-15T15:46:02;15.90;99.90
12303;DHT22;6214;48.012;7.862;2024-02-15T15:48:30;15.70;99.90
12303;DHT22;6214;48.012;7.862;2024-02-15T15:50:57;15.60;99.90
12303;DHT22;6214;48.012;7.862;2024-02-15T15:53:26;14.80;99.90
12303;DHT22;6214;48.012;7.862;2024-02-15T15:55:54;15.30;99.90
12303;DHT22;6214;48.012;7.862;2024-02-15T15:58:21;15.30;99.90
12303;DHT22;6214;48.012;7.862;2024-02-15T16:00:50;15.20;99.90
12303;DHT22;6214;48.012;7.862;2024-02-15T16:03:18;15.20;99.90
12303;DHT22;6214;48.012;7.862;2024-02-15T16:05:49;15.20;99.90
12303;DHT22;6214;48.012;7.862;2024-02-15T16:08:16;15.10;99.90
12303;DHT22;6214;48.012;7.862;2024-02-15T16:10:43;15.10;99.90
12303;DHT22;6214;48.012;7.862;2024-02-15T16:13:10;15.10;99.90
12303;DHT22;6214;48.012;7.862;2024-02-15T16:15:37;15.00;99.90
12303;DHT22;6214;48.012;7.862;2024-02-15T16:18:04;14.90;99.90
12303;DHT22;6214;48.012;7.862;2024-02-15T16:20:32;14.80;99.90
12303;DHT22;6214;48.012;7.862;2024-02-15T16:22:59;14.80;99.90
12303;DHT22;6214;48.012;7.862;2024-02-15T16:25:27;14.70;99.90
12303;DHT22;6214;48.012;7.862;2024-02-15T16:27:54;14.50;99.90
12303;DHT22;6214;48.012;7.862;2024-02-15T16:30:22;14.50;99.90
12303;DHT22;6214;48.012;7.862;2024-02-15T16:32:49;14.40;99.90
12303;DHT22;6214;48.012;7.862;2024-02-15T16:35:16;14.30;99.90
12303;DHT22;6214;48.012;7.862;2024-02-15T16:37:46;14.10;99.90